This is the latest recevied weather packets stored in our database for station/object YO8RBY-2. If no packets are shown the sender has not sent any weather packets the latest 10 day(s).
| Time | Temp. | Humidity | Pressure | Rain* | Wind** | Luminosity | Snow |
|---|---|---|---|---|---|---|---|
| 1777650188 | 17.22° C | 21% | 980 hPa | - | - | 0 W/m² | - |
| 1777648355 | 17.22° C | 21% | 981 hPa | - | - | 0 W/m² | - |
| 1777646532 | 16.67° C | 22% | 981 hPa | - | - | 0 W/m² | - |
| 1777644705 | 17.22° C | 21% | 981 hPa | - | - | 0 W/m² | - |
| 1777642882 | 20.56° C | 18% | 980 hPa | - | - | 0 W/m² | - |
| 1777641055 | 21.67° C | 17% | 981 hPa | - | - | 0 W/m² | - |
| 1777639234 | 22.22° C | 17% | 981 hPa | - | - | 0 W/m² | - |
| 1777637472 | 21.67° C | 16% | 981 hPa | - | - | 0 W/m² | - |
| 1777635587 | 21.11° C | 18% | 981 hPa | - | - | 0 W/m² | - |
| 1777633762 | 19.44° C | 18% | 981 hPa | - | - | 0 W/m² | - |
| 1777631931 | 17.78° C | 19% | 982 hPa | - | - | 0 W/m² | - |
| 1777630106 | 20° C | 17% | 982 hPa | - | - | 0 W/m² | - |
| 1777628281 | 18.33° C | 19% | 982 hPa | - | - | 0 W/m² | - |
| 1777626456 | 16.67° C | 21% | 982 hPa | - | - | 0 W/m² | - |
| 1777624634 | 16.11° C | 22% | 982 hPa | - | - | 0 W/m² | - |
| 1777622810 | 15.56° C | 21% | 982 hPa | - | - | 0 W/m² | - |
| 1777620982 | 14.44° C | 22% | 983 hPa | - | - | 0 W/m² | - |
| 1777619158 | 15.56° C | 21% | 983 hPa | - | - | 0 W/m² | - |
| 1777617333 | 14.44° C | 25% | 983 hPa | - | - | 0 W/m² | - |
| 1777613683 | 10.56° C | 32% | 983 hPa | - | - | 0 W/m² | - |
| 1777610033 | 7.78° C | 38% | 983 hPa | - | - | 0 W/m² | - |
| 1777608208 | 6.67° C | 39% | 983 hPa | - | - | 0 W/m² | - |
| 1777606385 | 6.11° C | 39% | 983 hPa | - | - | 0 W/m² | - |
| 1777604561 | 6.11° C | 39% | 983 hPa | - | - | 0 W/m² | - |
| 1777602738 | 5.56° C | 40% | 983 hPa | - | - | 0 W/m² | - |
* Rain since midnight (hover to see other rain measurements)
** Current wind speed in m/s (hover to see current wind gust speed)